Terminal Aerodrome Forecast
Issued by NWS

Home | Current Version | Previous Version | Text Only | Print | Product List | Glossary On
Versions: 1 2 3 4 5 6 7 8 9 10 11 12 13 14 15 16 17 18 19 20 21 22 23 24 25 26
000
FTUS44 KHGX 020544 CCA
TAFLBX
TAF COR
KLBX 020544Z 0206/0306 10008KT P6SM VCSH OVC025
      TEMPO 0206/0208 5SM SHRA BR BKN015
     FM020800 02012KT P6SM VCTS SCT008CB OVC015
     FM021600 36012G20KT P6SM VCSH BKN018 OVC050
     FM022000 35015KT P6SM BKN050
     FM030000 36008KT P6SM BKN100=

USA.gov is the U.S. government's official web portal to all federal, state and local government web resources and services.